Terminal Aerodrome Forecast
Issued by NWS Paducah, KY

Home | Current Version | Previous Version | Graphics & Text | Print | Product List | Glossary On
Versions: 1 2 3 4 5 6 7 8 9 10 11 12 13 14 15 16
000
FTUS43 KPAH 261700
TAFPAH
TAF
KPAH 261729Z 2618/2718 20007G17KT P6SM BKN045
     FM270000 18007KT P6SM BKN045 PROB30 2708/2712 -SHRA BKN025
     FM271200 17007KT 4SM SHRA BR OVC015=

USA.gov is the U.S. government's official web portal to all federal, state and local government web resources and services.